createdAt,value
2019-02-24T00:00:31.713Z,99.9
2019-02-24T00:01:38.905Z,99.9
2019-02-24T00:02:46.099Z,99.9
2019-02-24T00:03:54.662Z,99.9
2019-02-24T00:05:01.894Z,99.9
2019-02-24T00:06:09.087Z,99.9
2019-02-24T00:07:16.001Z,99.9
2019-02-24T00:08:22.948Z,99.9
2019-02-24T00:09:30.145Z,99.9
2019-02-24T00:10:37.334Z,99.9
2019-02-24T00:11:44.520Z,99.9
2019-02-24T00:12:51.710Z,99.9
2019-02-24T00:13:58.906Z,99.9
2019-02-24T00:15:06.099Z,99.9
2019-02-24T00:16:13.024Z,99.9
2019-02-24T00:17:20.258Z,99.9
2019-02-24T00:18:27.451Z,99.9
2019-02-24T00:19:34.637Z,99.9
2019-02-24T00:20:41.844Z,99.9
2019-02-24T00:21:49.028Z,99.9
2019-02-24T00:22:56.217Z,99.9
2019-02-24T00:24:03.407Z,99.9
2019-02-24T00:25:10.597Z,99.9
2019-02-24T00:26:17.789Z,99.9
2019-02-24T00:27:24.981Z,99.9
2019-02-24T00:28:32.179Z,99.9
2019-02-24T00:29:39.093Z,99.9
2019-02-24T00:30:46.286Z,99.9
2019-02-24T00:31:53.482Z,99.9
2019-02-24T00:33:00.676Z,99.9
2019-02-24T00:34:07.866Z,99.9
2019-02-24T00:35:14.787Z,99.9
2019-02-24T00:36:21.983Z,99.9
2019-02-24T00:37:29.179Z,99.9
2019-02-24T00:38:36.404Z,99.9
2019-02-24T00:39:43.597Z,99.9
2019-02-24T00:40:51.009Z,99.9
2019-02-24T00:41:58.238Z,99.9
2019-02-24T00:43:05.429Z,99.9
2019-02-24T00:44:12.624Z,99.9
2019-02-24T00:45:19.538Z,99.9
2019-02-24T00:46:26.729Z,99.9
2019-02-24T00:47:33.919Z,99.9
2019-02-24T00:48:41.108Z,99.9
2019-02-24T00:49:48.295Z,99.9
2019-02-24T00:50:55.484Z,99.9
2019-02-24T00:52:02.679Z,99.9
2019-02-24T00:53:09.593Z,99.9
2019-02-24T00:54:16.791Z,99.9
2019-02-24T00:55:23.714Z,99.9
2019-02-24T00:56:30.353Z,99.9
2019-02-24T00:57:37.539Z,99.9
2019-02-24T00:58:44.732Z,99.9
2019-02-24T00:59:51.652Z,99.9
2019-02-24T01:00:58.303Z,99.9
2019-02-24T01:02:05.496Z,99.9
2019-02-24T01:03:12.681Z,99.9
2019-02-24T01:04:19.601Z,99.9
2019-02-24T01:05:26.286Z,99.9
2019-02-24T01:06:33.480Z,99.9
2019-02-24T01:07:40.667Z,99.9
2019-02-24T01:08:47.316Z,99.9
2019-02-24T01:09:54.232Z,99.9
2019-02-24T01:11:01.149Z,99.9
2019-02-24T01:12:08.344Z,99.9
2019-02-24T01:13:14.984Z,99.9
2019-02-24T01:14:22.175Z,99.9
2019-02-24T01:15:29.094Z,99.9
2019-02-24T01:16:36.283Z,99.9
2019-02-24T01:17:43.470Z,99.9
2019-02-24T01:18:50.662Z,99.9
2019-02-24T01:19:57.857Z,99.9
2019-02-24T01:21:04.790Z,99.9
2019-02-24T01:22:11.707Z,99.9
2019-02-24T01:23:18.898Z,99.9
2019-02-24T01:24:26.316Z,99.9
2019-02-24T01:25:33.482Z,99.9
2019-02-24T01:26:40.672Z,99.9
2019-02-24T01:27:47.895Z,99.9
2019-02-24T01:28:55.086Z,99.9
2019-02-24T01:30:02.275Z,99.9
2019-02-24T01:31:08.924Z,99.9
2019-02-24T01:32:15.850Z,99.9
2019-02-24T01:33:23.038Z,99.9
2019-02-24T01:34:30.223Z,99.9
2019-02-24T01:35:37.415Z,99.9
2019-02-24T01:36:44.332Z,99.9
2019-02-24T01:37:51.522Z,99.9
2019-02-24T01:38:58.715Z,99.9
2019-02-24T01:40:05.902Z,99.9
2019-02-24T01:41:13.095Z,99.9
2019-02-24T01:42:20.007Z,99.9
2019-02-24T01:43:27.199Z,99.9
2019-02-24T01:44:34.385Z,99.9
2019-02-24T01:45:41.576Z,99.9
2019-02-24T01:46:48.771Z,99.9
2019-02-24T01:47:55.416Z,99.9
2019-02-24T01:49:02.606Z,99.9
2019-02-24T01:50:09.796Z,99.9
2019-02-24T01:51:16.994Z,99.9
2019-02-24T01:52:24.195Z,99.9
2019-02-24T01:53:31.384Z,99.9
2019-02-24T01:54:38.302Z,99.9
2019-02-24T01:55:45.497Z,99.9
2019-02-24T01:56:52.691Z,99.9
2019-02-24T01:57:59.606Z,99.9
2019-02-24T01:59:06.535Z,99.9
2019-02-24T02:00:13.728Z,99.9
2019-02-24T02:01:20.919Z,99.9
2019-02-24T02:02:28.112Z,99.9
2019-02-24T02:03:35.310Z,99.9
2019-02-24T02:04:42.494Z,99.9
2019-02-24T02:05:49.697Z,99.9
2019-02-24T02:06:56.345Z,99.9
2019-02-24T02:08:03.542Z,99.9
2019-02-24T02:09:10.732Z,99.9
2019-02-24T02:10:17.922Z,99.9
2019-02-24T02:11:25.120Z,99.9
2019-02-24T02:12:32.310Z,99.9
2019-02-24T02:13:39.501Z,99.9
2019-02-24T02:14:46.418Z,99.9
2019-02-24T02:15:53.350Z,99.9
2019-02-24T02:17:00.540Z,99.9
2019-02-24T02:18:07.730Z,99.9
2019-02-24T02:19:15.126Z,99.9
2019-02-24T02:20:22.043Z,99.9
2019-02-24T02:21:28.955Z,99.9
2019-02-24T02:22:36.140Z,99.9
2019-02-24T02:23:43.059Z,99.9
2019-02-24T02:24:50.253Z,99.9
2019-02-24T02:25:57.440Z,99.9
2019-02-24T02:27:04.090Z,99.9
2019-02-24T02:28:11.285Z,99.9
2019-02-24T02:29:18.479Z,99.9
2019-02-24T02:30:25.680Z,99.9
2019-02-24T02:31:32.867Z,99.9
2019-02-24T02:32:40.068Z,99.9
2019-02-24T02:33:47.259Z,99.9
2019-02-24T02:34:54.448Z,99.9
2019-02-24T02:36:01.366Z,99.9
2019-02-24T02:37:08.561Z,99.9
2019-02-24T02:38:15.504Z,99.9
2019-02-24T02:39:22.420Z,99.9
2019-02-24T02:40:29.606Z,99.9
2019-02-24T02:41:38.800Z,99.9
2019-02-24T02:42:46.054Z,99.9
2019-02-24T02:43:53.244Z,99.9
2019-02-24T02:45:00.433Z,99.9
2019-02-24T02:46:07.637Z,99.9
2019-02-24T02:47:14.815Z,99.9
2019-02-24T02:48:22.000Z,99.9
2019-02-24T02:49:29.196Z,99.9
2019-02-24T02:50:36.112Z,99.9
2019-02-24T02:51:43.299Z,99.9
2019-02-24T02:52:50.491Z,99.9
2019-02-24T02:53:57.685Z,99.9
2019-02-24T02:55:04.882Z,99.9
2019-02-24T02:56:13.143Z,99.9
2019-02-24T02:57:20.414Z,99.9
2019-02-24T02:58:27.614Z,99.9
2019-02-24T02:59:34.525Z,99.9
2019-02-24T03:00:41.718Z,99.9
2019-02-24T03:01:48.908Z,99.9
2019-02-24T03:02:55.827Z,99.9
2019-02-24T03:04:02.483Z,99.9
2019-02-24T03:05:09.405Z,99.9
2019-02-24T03:06:16.590Z,99.9
2019-02-24T03:07:23.786Z,99.9
2019-02-24T03:08:30.980Z,99.9
2019-02-24T03:09:37.894Z,99.9
2019-02-24T03:10:44.808Z,99.9
2019-02-24T03:11:52.002Z,99.9
2019-02-24T03:12:59.196Z,99.9
2019-02-24T03:14:06.383Z,99.9
2019-02-24T03:15:13.299Z,99.9
2019-02-24T03:16:20.486Z,99.9
2019-02-24T03:17:29.866Z,99.9
2019-02-24T03:18:36.779Z,99.9
2019-02-24T03:19:43.968Z,99.9
2019-02-24T03:20:51.153Z,99.9
2019-02-24T03:21:58.344Z,99.9
2019-02-24T03:23:05.534Z,99.9
2019-02-24T03:24:12.727Z,99.9
2019-02-24T03:25:19.919Z,99.9
2019-02-24T03:27:48.953Z,99.9
2019-02-24T03:29:03.777Z,99.9
2019-02-24T03:30:11.394Z,99.9
2019-02-24T03:31:18.571Z,99.9
2019-02-24T03:32:25.783Z,99.9
2019-02-24T03:33:32.972Z,99.9
2019-02-24T03:34:39.886Z,99.9
2019-02-24T03:35:47.075Z,99.9
2019-02-24T03:36:54.272Z,99.9
2019-02-24T03:38:01.188Z,99.9
2019-02-24T03:39:08.414Z,99.9
2019-02-24T03:40:15.329Z,99.9
2019-02-24T03:41:22.517Z,99.9
2019-02-24T03:42:29.437Z,99.9
2019-02-24T03:43:36.636Z,99.9
2019-02-24T03:44:43.830Z,99.9
2019-02-24T03:45:51.018Z,99.9
2019-02-24T03:46:58.205Z,99.9
2019-02-24T03:48:05.396Z,99.9
2019-02-24T03:49:12.330Z,99.9
2019-02-24T03:50:19.521Z,99.9
2019-02-24T03:51:26.443Z,99.9
2019-02-24T03:52:33.638Z,99.9
2019-02-24T03:53:40.824Z,99.9
2019-02-24T03:54:47.745Z,99.9
2019-02-24T03:55:54.930Z,99.9
2019-02-24T03:57:04.092Z,99.9
2019-02-24T03:58:11.277Z,99.9
2019-02-24T03:59:18.202Z,99.9
2019-02-24T04:00:25.385Z,99.9
2019-02-24T04:01:32.585Z,99.9
2019-02-24T04:02:39.775Z,99.9
2019-02-24T04:03:46.971Z,99.9
2019-02-24T04:04:53.893Z,99.9
2019-02-24T04:06:01.285Z,99.9
2019-02-24T04:07:08.486Z,99.9
2019-02-24T04:08:15.404Z,99.9
2019-02-24T04:09:22.331Z,99.9
2019-02-24T04:10:29.240Z,99.9
2019-02-24T04:11:36.435Z,99.9
2019-02-24T04:12:43.625Z,99.9
2019-02-24T04:13:50.827Z,99.9
2019-02-24T04:14:58.019Z,99.9
2019-02-24T04:16:04.939Z,99.9
2019-02-24T04:17:12.135Z,99.9
2019-02-24T04:18:19.320Z,99.9
2019-02-24T04:19:26.235Z,99.9
2019-02-24T04:20:33.430Z,99.9
2019-02-24T04:21:40.627Z,99.9
2019-02-24T04:22:47.812Z,99.9
2019-02-24T04:23:55.007Z,99.9
2019-02-24T04:25:02.208Z,99.9
2019-02-24T04:26:09.403Z,99.9
2019-02-24T04:27:16.587Z,99.9
2019-02-24T04:28:23.781Z,99.9
2019-02-24T04:29:30.970Z,99.9
2019-02-24T04:30:38.159Z,99.9
2019-02-24T04:31:45.355Z,99.9
2019-02-24T04:32:52.271Z,99.9
2019-02-24T04:33:59.460Z,99.9
2019-02-24T04:35:06.512Z,99.9
2019-02-24T04:36:13.683Z,99.9
2019-02-24T04:37:20.605Z,99.9
2019-02-24T04:38:27.524Z,99.9
2019-02-24T04:39:34.710Z,99.9
2019-02-24T04:40:41.626Z,99.9
2019-02-24T04:41:48.820Z,99.9
2019-02-24T04:42:56.008Z,99.9
2019-02-24T04:44:03.204Z,99.9
2019-02-24T04:45:10.391Z,99.9
2019-02-24T04:46:17.578Z,99.9
2019-02-24T04:47:24.777Z,99.9
2019-02-24T04:48:31.965Z,99.9
2019-02-24T04:49:39.151Z,99.9
2019-02-24T04:50:46.064Z,99.9
2019-02-24T04:51:53.259Z,99.9
2019-02-24T04:53:00.446Z,99.9
2019-02-24T04:54:07.748Z,99.9
2019-02-24T04:55:14.930Z,99.9
2019-02-24T04:56:21.862Z,99.9
2019-02-24T04:57:28.803Z,99.9
2019-02-24T04:58:35.982Z,99.9
2019-02-24T04:59:43.176Z,99.9
2019-02-24T05:00:50.083Z,99.9
2019-02-24T05:01:57.269Z,99.9
2019-02-24T05:03:04.193Z,99.9
2019-02-24T05:04:11.382Z,99.9
2019-02-24T05:05:18.647Z,99.9
2019-02-24T05:06:25.549Z,99.9
2019-02-24T05:07:32.796Z,99.9
2019-02-24T05:08:39.999Z,99.9
2019-02-24T05:09:47.191Z,99.9
2019-02-24T05:10:54.108Z,99.9
2019-02-24T05:12:01.301Z,99.9
2019-02-24T05:13:08.489Z,99.9
2019-02-24T05:14:15.410Z,99.9
2019-02-24T05:15:22.598Z,99.9
2019-02-24T05:16:29.787Z,99.9
2019-02-24T05:17:38.691Z,99.9
2019-02-24T05:18:45.994Z,99.9
2019-02-24T05:19:53.190Z,99.9
2019-02-24T05:21:00.102Z,99.9
2019-02-24T05:22:07.301Z,99.9
2019-02-24T05:23:14.491Z,99.9
2019-02-24T05:24:21.682Z,99.9
2019-02-24T05:25:28.604Z,99.9
2019-02-24T05:26:35.791Z,99.9
2019-02-24T05:27:42.705Z,99.9
2019-02-24T05:28:49.625Z,99.9
2019-02-24T05:29:56.545Z,99.9
2019-02-24T05:31:03.730Z,99.9
2019-02-24T05:32:10.918Z,99.9
2019-02-24T05:33:18.106Z,99.9
2019-02-24T05:34:25.027Z,99.9
2019-02-24T05:35:32.218Z,99.9
2019-02-24T05:36:39.143Z,99.9
2019-02-24T05:37:46.328Z,99.9
2019-02-24T05:38:53.248Z,99.9
2019-02-24T05:40:00.432Z,99.9
2019-02-24T05:41:07.635Z,99.9
2019-02-24T05:42:14.821Z,99.9
2019-02-24T05:43:21.470Z,99.9
2019-02-24T05:44:28.390Z,99.9
2019-02-24T05:45:35.580Z,99.9
2019-02-24T05:46:42.772Z,99.9
2019-02-24T05:47:49.693Z,99.9
2019-02-24T05:48:56.888Z,99.9
2019-02-24T05:50:04.077Z,99.9
2019-02-24T05:51:11.265Z,99.9
2019-02-24T05:52:18.456Z,99.9
2019-02-24T05:53:25.654Z,99.9
2019-02-24T05:54:32.286Z,99.9
2019-02-24T05:55:39.693Z,99.9
2019-02-24T05:56:46.340Z,99.9
2019-02-24T05:57:53.527Z,99.9
2019-02-24T05:59:00.718Z,99.9
2019-02-24T06:00:07.639Z,99.9
2019-02-24T06:01:14.830Z,99.9
2019-02-24T06:02:22.038Z,99.9
2019-02-24T06:03:29.230Z,99.9
2019-02-24T06:04:36.765Z,99.9
2019-02-24T06:05:43.951Z,99.9
2019-02-24T06:06:51.136Z,99.9
2019-02-24T06:07:58.330Z,99.9
2019-02-24T06:09:05.524Z,99.9
2019-02-24T06:10:12.437Z,99.9
2019-02-24T06:11:19.629Z,99.9
2019-02-24T06:12:26.819Z,99.9
2019-02-24T06:13:34.006Z,99.9
2019-02-24T06:14:41.250Z,99.9
2019-02-24T06:15:48.434Z,99.9
2019-02-24T06:16:55.622Z,99.9
2019-02-24T06:18:02.271Z,99.9
2019-02-24T06:19:09.465Z,99.9
2019-02-24T06:20:16.656Z,99.9
2019-02-24T06:21:23.606Z,99.9
2019-02-24T06:22:30.793Z,99.9
2019-02-24T06:23:37.991Z,99.9
2019-02-24T06:24:45.223Z,99.9
2019-02-24T06:25:52.127Z,99.9
2019-02-24T06:26:59.329Z,99.9
2019-02-24T06:28:06.255Z,99.9
2019-02-24T06:29:13.449Z,99.9
2019-02-24T06:30:20.635Z,99.9
2019-02-24T06:31:27.280Z,99.9
2019-02-24T06:32:34.470Z,99.9
2019-02-24T06:33:41.666Z,99.9
2019-02-24T06:34:48.860Z,99.9
2019-02-24T06:35:56.048Z,99.9
2019-02-24T06:37:03.244Z,99.9
2019-02-24T06:38:10.431Z,99.9
2019-02-24T06:39:17.621Z,99.9
2019-02-24T06:40:24.530Z,99.9
2019-02-24T06:41:31.720Z,99.9
2019-02-24T06:42:38.913Z,99.9
2019-02-24T06:43:45.832Z,99.9
2019-02-24T06:44:53.018Z,99.9
2019-02-24T06:46:00.207Z,99.9
2019-02-24T06:47:07.129Z,99.9
2019-02-24T06:48:14.322Z,99.9
2019-02-24T06:49:21.567Z,99.9
2019-02-24T06:50:34.994Z,99.9
2019-02-24T06:51:42.594Z,99.9
2019-02-24T06:52:49.511Z,99.9
2019-02-24T06:53:56.701Z,99.9
2019-02-24T06:55:03.899Z,99.9
2019-02-24T06:56:11.088Z,99.9
2019-02-24T06:57:18.280Z,99.9
2019-02-24T06:58:25.470Z,99.9
2019-02-24T06:59:32.651Z,99.9
2019-02-24T07:00:39.835Z,99.9
2019-02-24T07:01:47.031Z,99.9
2019-02-24T07:02:54.221Z,99.9
2019-02-24T07:04:01.412Z,99.9
2019-02-24T07:05:08.608Z,99.9
2019-02-24T07:06:15.798Z,99.9
2019-02-24T07:07:22.993Z,99.9
2019-02-24T07:08:29.906Z,99.9
2019-02-24T07:09:37.094Z,99.9
2019-02-24T07:10:44.287Z,99.9
2019-02-24T07:11:51.498Z,99.9
2019-02-24T07:12:58.417Z,99.9
2019-02-24T07:14:05.605Z,99.9
2019-02-24T07:15:12.796Z,99.9
2019-02-24T07:16:19.989Z,99.9
2019-02-24T07:17:26.903Z,99.9
2019-02-24T07:18:34.096Z,99.9
2019-02-24T07:19:41.290Z,99.9
2019-02-24T07:20:48.221Z,99.9
2019-02-24T07:21:55.413Z,99.9
2019-02-24T07:23:02.605Z,99.9
2019-02-24T07:24:09.793Z,99.9
2019-02-24T07:25:16.983Z,99.9
2019-02-24T07:26:23.641Z,99.9
2019-02-24T07:27:30.563Z,99.9
2019-02-24T07:28:37.754Z,99.9
2019-02-24T07:29:44.950Z,99.9
2019-02-24T07:30:52.150Z,99.9
2019-02-24T07:31:59.346Z,99.9
2019-02-24T07:33:06.544Z,99.9
2019-02-24T07:34:13.739Z,99.9
2019-02-24T07:35:20.957Z,99.9
2019-02-24T07:36:27.873Z,99.9
2019-02-24T07:37:34.793Z,99.9
2019-02-24T07:38:41.989Z,99.9
2019-02-24T07:39:49.184Z,99.9
2019-02-24T07:40:56.378Z,99.9
2019-02-24T07:42:03.042Z,99.9
2019-02-24T07:43:10.260Z,99.9
2019-02-24T07:44:17.463Z,99.9
2019-02-24T07:45:24.664Z,99.9
2019-02-24T07:46:31.853Z,99.9
2019-02-24T07:47:39.047Z,99.9
2019-02-24T07:48:46.233Z,99.9
2019-02-24T07:49:53.424Z,99.9
2019-02-24T07:51:00.340Z,99.9
2019-02-24T07:52:07.259Z,99.9
2019-02-24T07:53:14.445Z,99.9
2019-02-24T07:54:21.364Z,99.9
2019-02-24T07:55:28.563Z,99.9
2019-02-24T07:56:37.338Z,99.9
2019-02-24T07:57:44.591Z,99.9
2019-02-24T07:58:51.781Z,99.9
2019-02-24T07:59:58.698Z,99.9
2019-02-24T08:01:06.030Z,99.9
2019-02-24T08:02:13.229Z,99.9
2019-02-24T08:03:20.429Z,99.9
2019-02-24T08:04:27.354Z,99.9
2019-02-24T08:05:34.542Z,99.9
2019-02-24T08:06:41.741Z,99.9
2019-02-24T08:07:48.681Z,96.9
2019-02-24T08:08:55.605Z,98.3
2019-02-24T08:10:02.802Z,99.9
2019-02-24T08:11:09.720Z,99.5
2019-02-24T08:12:16.910Z,97.4
2019-02-24T08:13:24.104Z,94.4
2019-02-24T08:14:31.307Z,85.2
2019-02-24T08:15:38.506Z,90
2019-02-24T08:16:45.699Z,91.1
2019-02-24T08:17:52.896Z,93.8
2019-02-24T08:19:00.087Z,97.8
2019-02-24T08:20:07.274Z,95.2
2019-02-24T08:21:14.467Z,90.7
2019-02-24T08:22:21.657Z,83
2019-02-24T08:23:28.870Z,75.8
2019-02-24T08:24:36.060Z,63.6
2019-02-24T08:25:42.976Z,71.5
2019-02-24T08:26:50.201Z,80.7
2019-02-24T08:27:57.381Z,79.3
2019-02-24T08:29:04.576Z,53
2019-02-24T08:30:11.767Z,59.2
2019-02-24T08:31:18.961Z,60
2019-02-24T08:32:26.177Z,50.9
2019-02-24T08:33:33.357Z,63.2
2019-02-24T08:34:40.549Z,66.6
2019-02-24T08:35:47.471Z,63.1
2019-02-24T08:36:54.665Z,36.8
2019-02-24T08:38:01.854Z,28.1
2019-02-24T08:39:09.046Z,52.6
2019-02-24T08:40:15.980Z,52.1
2019-02-24T08:41:23.179Z,36.8
2019-02-24T08:42:30.108Z,39.4
2019-02-24T08:43:37.308Z,51.7
2019-02-24T08:44:44.561Z,23.7
2019-02-24T08:45:51.202Z,24.6
2019-02-24T08:46:58.394Z,13.2
2019-02-24T08:48:05.587Z,26.8
2019-02-24T08:49:12.508Z,24.5
2019-02-24T08:50:19.430Z,24.5
2019-02-24T08:51:26.623Z,17.6
2019-02-24T08:52:33.821Z,10.2
2019-02-24T08:53:41.037Z,24.3
2019-02-24T08:54:48.217Z,11.1
2019-02-24T08:55:55.510Z,18.2
2019-02-24T08:57:02.711Z,25.9
2019-02-24T08:58:09.914Z,14.3
2019-02-24T08:59:16.878Z,20.4
2019-02-24T09:00:24.076Z,7.8
2019-02-24T09:01:31.011Z,8.2
2019-02-24T09:02:38.212Z,1
2019-02-24T09:03:45.415Z,1
2019-02-24T09:04:52.623Z,1
2019-02-24T09:05:59.827Z,1
2019-02-24T09:07:08.467Z,1
2019-02-24T09:08:15.838Z,1
2019-02-24T09:09:23.033Z,1
2019-02-24T09:10:29.689Z,1
2019-02-24T09:11:36.901Z,1
2019-02-24T09:12:43.824Z,1
2019-02-24T09:13:50.747Z,1
2019-02-24T09:14:57.951Z,1
2019-02-24T09:16:05.214Z,1
2019-02-24T09:17:12.405Z,1
2019-02-24T09:18:19.602Z,1
2019-02-24T09:19:26.800Z,1
2019-02-24T09:20:33.728Z,1
2019-02-24T09:21:40.929Z,1
2019-02-24T09:22:48.127Z,1
2019-02-24T09:23:55.054Z,1
2019-02-24T09:25:03.355Z,1
2019-02-24T09:26:10.393Z,1
2019-02-24T09:27:17.597Z,1
2019-02-24T09:28:24.833Z,1
2019-02-24T09:29:32.025Z,1
2019-02-24T09:30:39.233Z,1
2019-02-24T09:31:48.420Z,1
2019-02-24T09:32:55.623Z,1
2019-02-24T09:34:02.826Z,1
2019-02-24T09:35:10.028Z,1
2019-02-24T09:36:17.223Z,1
2019-02-24T09:37:24.150Z,1
2019-02-24T09:38:31.355Z,1
2019-02-24T09:39:38.556Z,1
2019-02-24T09:40:45.755Z,1
2019-02-24T09:41:52.964Z,1
2019-02-24T09:42:59.951Z,1
2019-02-24T09:44:07.153Z,1
2019-02-24T09:45:14.340Z,1
2019-02-24T09:46:21.554Z,1
2019-02-24T09:47:28.500Z,1
2019-02-24T09:48:35.703Z,1
2019-02-24T09:49:42.906Z,1
2019-02-24T09:50:50.125Z,1
2019-02-24T09:51:57.325Z,1
2019-02-24T09:53:04.529Z,1
2019-02-24T09:54:11.459Z,1
2019-02-24T09:55:18.659Z,1
2019-02-24T09:56:25.850Z,1
2019-02-24T09:57:33.051Z,1
2019-02-24T09:58:40.252Z,1
2019-02-24T09:59:47.449Z,1
2019-02-24T10:00:54.382Z,1
2019-02-24T10:02:01.317Z,1
2019-02-24T10:03:08.517Z,1
2019-02-24T10:04:15.722Z,1
2019-02-24T10:05:22.931Z,1
2019-02-24T10:06:30.130Z,1
2019-02-24T10:07:37.334Z,1
2019-02-24T10:08:44.527Z,1
2019-02-24T10:09:51.474Z,1
2019-02-24T10:10:58.708Z,1
2019-02-24T10:12:05.904Z,1
2019-02-24T10:13:13.104Z,1
2019-02-24T10:14:20.301Z,1
2019-02-24T10:15:27.497Z,1
2019-02-24T10:16:34.699Z,1
2019-02-24T10:17:41.900Z,1
2019-02-24T10:18:49.140Z,1
2019-02-24T10:19:56.341Z,1
2019-02-24T10:21:03.272Z,1
2019-02-24T10:22:09.982Z,1
2019-02-24T10:23:17.175Z,1
2019-02-24T10:24:24.116Z,1
2019-02-24T10:25:31.317Z,1
2019-02-24T10:26:38.239Z,1
2019-02-24T10:27:44.905Z,1
2019-02-24T10:28:52.103Z,1
2019-02-24T10:29:59.303Z,1
2019-02-24T10:31:06.595Z,1
2019-02-24T10:32:13.517Z,1
2019-02-24T10:33:20.720Z,1
2019-02-24T10:34:27.925Z,1
2019-02-24T10:35:35.145Z,1
2019-02-24T10:36:42.358Z,1
2019-02-24T10:37:49.562Z,1
2019-02-24T10:38:56.768Z,1
2019-02-24T10:40:03.705Z,1
2019-02-24T10:41:10.907Z,1
2019-02-24T10:42:18.115Z,1
2019-02-24T10:43:25.032Z,1
2019-02-24T10:44:31.971Z,1
2019-02-24T10:45:39.172Z,1
2019-02-24T10:46:46.100Z,1
2019-02-24T10:47:53.302Z,1
2019-02-24T10:49:03.238Z,1
2019-02-24T10:50:10.795Z,1
2019-02-24T10:51:17.724Z,1
2019-02-24T10:52:24.926Z,1
2019-02-24T10:53:31.848Z,1
2019-02-24T10:54:38.783Z,1
2019-02-24T10:55:45.983Z,1
2019-02-24T10:56:52.915Z,1
2019-02-24T10:57:59.841Z,1
2019-02-24T10:59:07.047Z,1
2019-02-24T11:00:14.270Z,1
2019-02-24T11:01:29.179Z,1
2019-02-24T11:02:36.563Z,1
2019-02-24T11:03:43.768Z,1
2019-02-24T11:04:50.713Z,1
2019-02-24T11:05:57.910Z,1
2019-02-24T11:07:04.838Z,1
2019-02-24T11:08:11.773Z,1
2019-02-24T11:09:18.971Z,1
2019-02-24T11:10:26.170Z,1
2019-02-24T11:11:33.086Z,1
2019-02-24T11:12:40.284Z,1
2019-02-24T11:13:47.482Z,1
2019-02-24T11:14:54.410Z,1
2019-02-24T11:16:01.616Z,1
2019-02-24T11:17:08.819Z,1
2019-02-24T11:18:16.019Z,1
2019-02-24T11:19:23.231Z,1
2019-02-24T11:20:30.437Z,1
2019-02-24T11:21:37.090Z,1
2019-02-24T11:22:44.304Z,1
2019-02-24T11:23:51.239Z,1
2019-02-24T11:24:58.166Z,1
2019-02-24T11:26:05.098Z,1
2019-02-24T11:27:12.031Z,1
2019-02-24T11:28:18.683Z,1
2019-02-24T11:29:25.888Z,1
2019-02-24T11:30:33.083Z,1
2019-02-24T11:31:40.009Z,1
2019-02-24T11:32:47.217Z,1
2019-02-24T11:33:54.421Z,1
2019-02-24T11:35:01.626Z,1
2019-02-24T11:36:08.826Z,1
2019-02-24T11:37:16.028Z,1
2019-02-24T11:38:23.233Z,1
2019-02-24T11:39:30.436Z,1
2019-02-24T11:40:37.368Z,1
2019-02-24T11:41:44.567Z,1
2019-02-24T11:42:51.767Z,1
2019-02-24T11:43:58.970Z,1
2019-02-24T11:45:05.895Z,1
2019-02-24T11:46:12.817Z,1
2019-02-24T11:47:19.746Z,1
2019-02-24T11:48:26.957Z,1
2019-02-24T11:49:34.160Z,1
2019-02-24T11:50:41.360Z,1
2019-02-24T11:51:48.565Z,1
2019-02-24T11:52:55.501Z,1
2019-02-24T11:54:02.707Z,1
2019-02-24T11:55:09.911Z,1
2019-02-24T11:56:17.111Z,1
2019-02-24T11:57:26.362Z,1
2019-02-24T11:58:33.569Z,1
2019-02-24T11:59:40.779Z,1
2019-02-24T12:00:47.707Z,1
2019-02-24T12:01:54.915Z,1
2019-02-24T12:03:02.113Z,1
2019-02-24T12:04:09.314Z,1
2019-02-24T12:05:16.248Z,1
2019-02-24T12:06:23.450Z,1
2019-02-24T12:07:30.677Z,1
2019-02-24T12:08:37.888Z,1
2019-02-24T12:09:44.825Z,1
2019-02-24T12:10:52.026Z,1
2019-02-24T12:11:59.233Z,1
2019-02-24T12:13:06.436Z,1
2019-02-24T12:14:13.643Z,1
2019-02-24T12:15:20.865Z,1
2019-02-24T12:16:28.059Z,1
2019-02-24T12:17:35.262Z,1
2019-02-24T12:18:42.474Z,1
2019-02-24T12:19:49.673Z,1
2019-02-24T12:20:56.600Z,1
2019-02-24T12:22:03.807Z,1
2019-02-24T12:23:11.065Z,1
2019-02-24T12:24:18.250Z,1
2019-02-24T12:25:25.450Z,1
2019-02-24T12:26:32.656Z,1
2019-02-24T12:27:41.475Z,1
2019-02-24T12:28:48.672Z,1
2019-02-24T12:29:55.906Z,1
2019-02-24T12:31:03.106Z,1
2019-02-24T12:32:10.343Z,1
2019-02-24T12:33:17.574Z,1
2019-02-24T12:34:24.788Z,1
2019-02-24T12:35:31.995Z,1
2019-02-24T12:36:39.199Z,1
2019-02-24T12:37:46.406Z,1
2019-02-24T12:38:53.609Z,1
2019-02-24T12:40:00.822Z,1
2019-02-24T12:41:07.761Z,1
2019-02-24T12:42:14.686Z,1
2019-02-24T12:43:21.623Z,1
2019-02-24T12:44:28.828Z,1
2019-02-24T12:45:36.031Z,1
2019-02-24T12:46:42.965Z,1
2019-02-24T12:47:50.170Z,1
2019-02-24T12:48:57.369Z,1
2019-02-24T12:50:04.302Z,1
2019-02-24T12:51:11.226Z,1
2019-02-24T12:52:18.151Z,1
2019-02-24T12:53:27.579Z,1
2019-02-24T12:54:34.876Z,1
2019-02-24T12:55:42.082Z,1
2019-02-24T12:56:49.284Z,1
2019-02-24T12:57:56.495Z,1
2019-02-24T12:59:03.698Z,1
2019-02-24T13:00:10.900Z,1
2019-02-24T13:01:17.846Z,1
2019-02-24T13:02:25.035Z,1
2019-02-24T13:03:32.242Z,1
2019-02-24T13:04:39.450Z,1
2019-02-24T13:05:46.683Z,1
2019-02-24T13:06:53.880Z,1
2019-02-24T13:08:00.809Z,1
2019-02-24T13:09:07.469Z,1
2019-02-24T13:10:14.408Z,1
2019-02-24T13:11:21.624Z,1
2019-02-24T13:12:28.827Z,1
2019-02-24T13:13:36.037Z,1
2019-02-24T13:14:43.236Z,1
2019-02-24T13:15:50.171Z,1
2019-02-24T13:16:57.100Z,1
2019-02-24T13:18:04.311Z,1
2019-02-24T13:19:11.516Z,1
2019-02-24T13:20:18.169Z,1
2019-02-24T13:21:25.378Z,1
2019-02-24T13:22:32.584Z,1
2019-02-24T13:23:39.784Z,1
2019-02-24T13:24:46.990Z,1
2019-02-24T13:25:53.643Z,1
2019-02-24T13:27:00.854Z,1
2019-02-24T13:28:08.075Z,1
2019-02-24T13:29:15.278Z,1
2019-02-24T13:30:22.486Z,1
2019-02-24T13:31:29.694Z,1
2019-02-24T13:32:36.624Z,1
2019-02-24T13:33:43.831Z,1
2019-02-24T13:34:50.772Z,1
2019-02-24T13:35:57.977Z,1
2019-02-24T13:37:04.911Z,1
2019-02-24T13:38:12.121Z,1
2019-02-24T13:39:19.321Z,1
2019-02-24T13:40:26.523Z,1
2019-02-24T13:41:33.731Z,1
2019-02-24T13:42:40.942Z,1
2019-02-24T13:43:47.599Z,1
2019-02-24T13:44:54.803Z,1
2019-02-24T13:46:02.012Z,1
2019-02-24T13:47:08.943Z,1
2019-02-24T13:48:15.600Z,1
2019-02-24T13:49:22.802Z,1
2019-02-24T13:50:30.007Z,1
2019-02-24T13:51:37.235Z,1
2019-02-24T13:52:43.894Z,1
2019-02-24T13:53:51.099Z,1
2019-02-24T13:54:58.305Z,1
2019-02-24T13:56:05.505Z,1
2019-02-24T13:57:12.446Z,1
2019-02-24T13:58:19.659Z,1
2019-02-24T13:59:26.862Z,1
2019-02-24T14:00:34.068Z,1
2019-02-24T14:01:40.997Z,1
2019-02-24T14:02:48.206Z,1
2019-02-24T14:03:55.414Z,1
2019-02-24T14:05:02.356Z,1
2019-02-24T14:06:09.292Z,1
2019-02-24T14:07:16.497Z,1
2019-02-24T14:08:23.702Z,1
2019-02-24T14:09:30.912Z,1
2019-02-24T14:10:38.115Z,1
2019-02-24T14:11:45.329Z,1
2019-02-24T14:12:52.258Z,1
2019-02-24T14:13:59.476Z,1
2019-02-24T14:15:06.428Z,1
2019-02-24T14:16:13.636Z,1
2019-02-24T14:17:20.846Z,1
2019-02-24T14:18:28.055Z,1
2019-02-24T14:19:35.264Z,1
2019-02-24T14:20:42.191Z,1
2019-02-24T14:21:49.393Z,1
2019-02-24T14:22:56.597Z,1
2019-02-24T14:24:03.530Z,1
2019-02-24T14:25:10.456Z,1
2019-02-24T14:26:19.670Z,1
2019-02-24T14:27:26.986Z,1
2019-02-24T14:28:34.189Z,1
2019-02-24T14:29:41.402Z,1
2019-02-24T14:30:48.329Z,1
2019-02-24T14:31:55.538Z,1
2019-02-24T14:33:02.754Z,1
2019-02-24T14:34:09.957Z,1
2019-02-24T14:35:16.896Z,1
2019-02-24T14:36:24.116Z,1
2019-02-24T14:37:31.326Z,1
2019-02-24T14:38:38.263Z,1
2019-02-24T14:39:45.468Z,1
2019-02-24T14:40:52.672Z,1
2019-02-24T14:41:59.884Z,1
2019-02-24T14:43:07.089Z,1
2019-02-24T14:44:14.028Z,1
2019-02-24T14:45:21.234Z,1
2019-02-24T14:46:28.452Z,1
2019-02-24T14:47:35.665Z,1
2019-02-24T14:48:44.661Z,1
2019-02-24T14:49:51.981Z,1
2019-02-24T14:50:58.910Z,1
2019-02-24T14:52:06.117Z,1
2019-02-24T14:53:13.323Z,1
2019-02-24T14:54:20.258Z,1
2019-02-24T14:55:27.468Z,1
2019-02-24T14:56:34.669Z,1
2019-02-24T14:57:41.874Z,1
2019-02-24T14:58:49.087Z,1
2019-02-24T14:59:56.013Z,1
2019-02-24T15:01:03.230Z,1
2019-02-24T15:02:10.438Z,1
2019-02-24T15:03:17.642Z,1
2019-02-24T15:04:24.847Z,1
2019-02-24T15:05:32.053Z,1
2019-02-24T15:06:39.259Z,1
2019-02-24T15:07:46.468Z,1
2019-02-24T15:08:53.398Z,1
2019-02-24T15:10:00.613Z,1
2019-02-24T15:11:07.815Z,1
2019-02-24T15:12:14.753Z,1
2019-02-24T15:13:21.952Z,1
2019-02-24T15:14:28.888Z,1
2019-02-24T15:15:36.099Z,1
2019-02-24T15:16:43.029Z,1
2019-02-24T15:17:50.241Z,1
2019-02-24T15:18:57.447Z,1
2019-02-24T15:20:04.660Z,1
2019-02-24T15:21:11.868Z,1
2019-02-24T15:22:19.075Z,1
2019-02-24T15:23:26.302Z,1
2019-02-24T15:24:33.235Z,1
2019-02-24T15:25:40.446Z,1
2019-02-24T15:26:47.647Z,1
2019-02-24T15:27:54.857Z,1
2019-02-24T15:29:02.066Z,1
2019-02-24T15:30:08.747Z,1
2019-02-24T15:31:15.955Z,1
2019-02-24T15:32:22.894Z,1
2019-02-24T15:33:29.823Z,1
2019-02-24T15:34:37.038Z,1
2019-02-24T15:35:44.237Z,1